sensor_id;sensor_type;location;lat;lon;timestamp;pressure;altitude;pressure_sealevel;temperature;humidity
46876;BME280;32866;50.160;14.768;2023-03-22T00:01:39;99175.19;;;8.35;100.00
46876;BME280;32866;50.160;14.768;2023-03-22T00:04:07;99132.28;;;8.19;100.00
46876;BME280;32866;50.160;14.768;2023-03-22T00:06:33;99173.88;;;8.43;100.00
46876;BME280;32866;50.160;14.768;2023-03-22T00:08:59;99164.34;;;8.48;100.00
46876;BME280;32866;50.160;14.768;2023-03-22T00:11:25;99170.28;;;8.46;100.00
46876;BME280;32866;50.160;14.768;2023-03-22T00:13:50;99175.38;;;8.44;100.00
46876;BME280;32866;50.160;14.768;2023-03-22T00:16:17;99176.94;;;8.45;100.00
46876;BME280;32866;50.160;14.768;2023-03-22T00:18:42;99173.66;;;8.34;100.00
46876;BME280;32866;50.160;14.768;2023-03-22T00:21:12;99176.72;;;8.36;100.00
46876;BME280;32866;50.160;14.768;2023-03-22T00:23:38;99177.94;;;8.35;100.00
46876;BME280;32866;50.160;14.768;2023-03-22T00:26:04;99148.31;;;8.17;100.00
46876;BME280;32866;50.160;14.768;2023-03-22T00:28:29;99177.16;;;8.51;100.00
46876;BME280;32866;50.160;14.768;2023-03-22T00:30:58;99170.19;;;8.50;100.00
46876;BME280;32866;50.160;14.768;2023-03-22T00:33:24;99172.22;;;8.46;100.00
46876;BME280;32866;50.160;14.768;2023-03-22T00:35:57;99166.50;;;8.40;100.00
46876;BME280;32866;50.160;14.768;2023-03-22T00:38:24;99157.09;;;8.41;100.00
46876;BME280;32866;50.160;14.768;2023-03-22T00:40:49;99163.19;;;8.49;100.00
46876;BME280;32866;50.160;14.768;2023-03-22T00:43:15;99149.00;;;8.38;100.00
46876;BME280;32866;50.160;14.768;2023-03-22T00:45:41;99129.72;;;8.28;100.00
46876;BME280;32866;50.160;14.768;2023-03-22T00:48:08;99147.91;;;8.51;100.00
46876;BME280;32866;50.160;14.768;2023-03-22T00:50:35;99130.69;;;8.22;100.00
46876;BME280;32866;50.160;14.768;2023-03-22T00:53:00;99143.09;;;8.39;100.00
46876;BME280;32866;50.160;14.768;2023-03-22T00:55:26;99132.38;;;8.15;100.00
46876;BME280;32866;50.160;14.768;2023-03-22T00:57:51;99122.66;;;8.14;100.00
46876;BME280;32866;50.160;14.768;2023-03-22T01:00:17;99125.41;;;8.14;100.00
46876;BME280;32866;50.160;14.768;2023-03-22T01:02:42;99137.91;;;8.28;100.00
46876;BME280;32866;50.160;14.768;2023-03-22T01:05:09;99128.28;;;8.07;100.00
46876;BME280;32866;50.160;14.768;2023-03-22T01:07:39;99134.59;;;8.21;100.00
46876;BME280;32866;50.160;14.768;2023-03-22T01:10:06;99116.28;;;8.05;100.00
46876;BME280;32866;50.160;14.768;2023-03-22T01:12:32;99141.59;;;8.22;100.00
46876;BME280;32866;50.160;14.768;2023-03-22T01:14:57;99121.47;;;7.99;100.00
46876;BME280;32866;50.160;14.768;2023-03-22T01:17:22;99130.84;;;7.98;100.00
46876;BME280;32866;50.160;14.768;2023-03-22T01:19:48;99131.53;;;8.02;100.00
46876;BME280;32866;50.160;14.768;2023-03-22T01:22:13;99119.44;;;8.03;100.00
46876;BME280;32866;50.160;14.768;2023-03-22T01:24:38;99122.16;;;8.03;100.00
46876;BME280;32866;50.160;14.768;2023-03-22T01:27:04;99133.41;;;8.22;100.00
46876;BME280;32866;50.160;14.768;2023-03-22T01:29:30;99133.72;;;8.40;100.00
46876;BME280;32866;50.160;14.768;2023-03-22T01:31:55;99134.06;;;8.42;100.00
46876;BME280;32866;50.160;14.768;2023-03-22T01:34:21;99136.38;;;8.44;100.00
46876;BME280;32866;50.160;14.768;2023-03-22T01:36:46;99097.72;;;8.29;100.00
46876;BME280;32866;50.160;14.768;2023-03-22T01:39:12;99119.38;;;8.52;100.00
46876;BME280;32866;50.160;14.768;2023-03-22T01:41:37;99136.56;;;8.82;100.00
46876;BME280;32866;50.160;14.768;2023-03-22T01:44:20;99137.69;;;8.98;100.00
46876;BME280;32866;50.160;14.768;2023-03-22T01:46:47;99143.06;;;9.01;100.00
46876;BME280;32866;50.160;14.768;2023-03-22T01:49:28;99137.31;;;9.12;100.00
46876;BME280;32866;50.160;14.768;2023-03-22T01:52:00;99146.50;;;9.18;100.00
46876;BME280;32866;50.160;14.768;2023-03-22T01:54:47;99146.84;;;9.33;100.00
46876;BME280;32866;50.160;14.768;2023-03-22T01:57:15;99128.81;;;9.36;100.00
46876;BME280;32866;50.160;14.768;2023-03-22T01:59:41;99119.84;;;9.48;100.00
46876;BME280;32866;50.160;14.768;2023-03-22T02:02:08;99121.16;;;9.31;100.00
46876;BME280;32866;50.160;14.768;2023-03-22T02:04:43;99128.84;;;9.06;100.00
46876;BME280;32866;50.160;14.768;2023-03-22T02:07:13;99127.50;;;8.85;100.00
46876;BME280;32866;50.160;14.768;2023-03-22T02:09:40;99121.56;;;8.74;100.00
46876;BME280;32866;50.160;14.768;2023-03-22T02:16:20;99119.19;;;8.89;100.00
46876;BME280;32866;50.160;14.768;2023-03-22T02:21:22;99107.38;;;8.79;100.00
46876;BME280;32866;50.160;14.768;2023-03-22T02:27:08;99104.34;;;8.61;100.00
46876;BME280;32866;50.160;14.768;2023-03-22T02:30:11;99106.75;;;8.59;100.00
46876;BME280;32866;50.160;14.768;2023-03-22T02:33:06;99108.66;;;8.75;100.00
46876;BME280;32866;50.160;14.768;2023-03-22T02:35:48;99079.97;;;8.37;100.00
46876;BME280;32866;50.160;14.768;2023-03-22T02:40:55;99122.44;;;8.54;100.00
46876;BME280;32866;50.160;14.768;2023-03-22T02:46:44;99116.41;;;8.76;100.00
46876;BME280;32866;50.160;14.768;2023-03-22T02:54:39;99084.16;;;8.71;100.00
46876;BME280;32866;50.160;14.768;2023-03-22T02:57:15;99078.16;;;8.76;100.00
46876;BME280;32866;50.160;14.768;2023-03-22T02:59:42;99113.44;;;9.00;100.00
46876;BME280;32866;50.160;14.768;2023-03-22T03:02:12;99118.88;;;9.00;100.00
46876;BME280;32866;50.160;14.768;2023-03-22T03:04:47;99114.44;;;9.06;100.00
46876;BME280;32866;50.160;14.768;2023-03-22T03:07:18;99114.00;;;9.07;100.00
46876;BME280;32866;50.160;14.768;2023-03-22T03:09:46;99114.53;;;9.02;100.00
46876;BME280;32866;50.160;14.768;2023-03-22T03:12:12;99113.13;;;9.10;100.00
46876;BME280;32866;50.160;14.768;2023-03-22T03:14:38;99116.31;;;9.09;100.00
46876;BME280;32866;50.160;14.768;2023-03-22T03:25:37;99127.78;;;9.04;100.00
46876;BME280;32866;50.160;14.768;2023-03-22T03:33:37;99125.28;;;8.51;100.00
46876;BME280;32866;50.160;14.768;2023-03-22T03:36:08;99079.75;;;8.15;100.00
46876;BME280;32866;50.160;14.768;2023-03-22T03:38:38;99114.13;;;8.12;100.00
46876;BME280;32866;50.160;14.768;2023-03-22T03:41:09;99113.69;;;7.97;100.00
46876;BME280;32866;50.160;14.768;2023-03-22T03:43:37;99102.53;;;8.25;100.00
46876;BME280;32866;50.160;14.768;2023-03-22T03:46:03;99128.13;;;8.14;100.00
46876;BME280;32866;50.160;14.768;2023-03-22T03:48:31;99117.63;;;7.96;100.00
46876;BME280;32866;50.160;14.768;2023-03-22T03:50:59;99111.91;;;7.74;100.00
46876;BME280;32866;50.160;14.768;2023-03-22T03:53:25;99119.22;;;7.61;100.00
46876;BME280;32866;50.160;14.768;2023-03-22T03:55:50;99118.00;;;7.46;100.00
46876;BME280;32866;50.160;14.768;2023-03-22T03:58:16;99114.03;;;7.30;100.00
46876;BME280;32866;50.160;14.768;2023-03-22T04:00:42;99115.38;;;7.22;100.00
46876;BME280;32866;50.160;14.768;2023-03-22T04:03:07;99114.13;;;7.06;100.00
46876;BME280;32866;50.160;14.768;2023-03-22T04:05:32;99122.63;;;6.92;100.00
46876;BME280;32866;50.160;14.768;2023-03-22T04:07:58;99126.34;;;6.78;100.00
46876;BME280;32866;50.160;14.768;2023-03-22T04:10:23;99126.66;;;6.64;100.00
46876;BME280;32866;50.160;14.768;2023-03-22T04:12:48;99085.56;;;6.11;100.00
46876;BME280;32866;50.160;14.768;2023-03-22T04:15:14;99102.00;;;6.27;100.00
46876;BME280;32866;50.160;14.768;2023-03-22T04:17:39;99097.25;;;6.08;100.00
46876;BME280;32866;50.160;14.768;2023-03-22T04:20:06;99127.59;;;6.06;100.00
46876;BME280;32866;50.160;14.768;2023-03-22T04:22:33;99118.75;;;6.02;100.00
46876;BME280;32866;50.160;14.768;2023-03-22T04:25:02;99106.72;;;6.00;100.00
46876;BME280;32866;50.160;14.768;2023-03-22T04:27:27;99131.34;;;6.16;100.00
46876;BME280;32866;50.160;14.768;2023-03-22T04:29:53;99112.91;;;6.04;100.00
46876;BME280;32866;50.160;14.768;2023-03-22T04:32:19;99123.78;;;6.04;100.00
46876;BME280;32866;50.160;14.768;2023-03-22T04:34:48;99120.00;;;5.94;100.00
46876;BME280;32866;50.160;14.768;2023-03-22T04:37:14;99126.97;;;5.99;100.00
46876;BME280;32866;50.160;14.768;2023-03-22T04:39:39;99111.50;;;5.65;100.00
46876;BME280;32866;50.160;14.768;2023-03-22T04:42:05;99112.25;;;5.92;100.00
46876;BME280;32866;50.160;14.768;2023-03-22T04:44:30;99123.72;;;6.07;100.00
46876;BME280;32866;50.160;14.768;2023-03-22T04:46:56;99117.81;;;5.85;100.00
46876;BME280;32866;50.160;14.768;2023-03-22T04:49:22;99116.28;;;5.84;100.00
46876;BME280;32866;50.160;14.768;2023-03-22T04:51:47;99110.72;;;5.91;100.00
46876;BME280;32866;50.160;14.768;2023-03-22T04:54:13;99090.41;;;6.00;100.00
46876;BME280;32866;50.160;14.768;2023-03-22T04:56:38;99087.69;;;6.23;100.00
46876;BME280;32866;50.160;14.768;2023-03-22T04:59:03;99086.75;;;6.34;100.00
46876;BME280;32866;50.160;14.768;2023-03-22T05:01:29;99116.91;;;6.43;100.00
46876;BME280;32866;50.160;14.768;2023-03-22T05:03:55;99096.84;;;6.33;100.00
46876;BME280;32866;50.160;14.768;2023-03-22T05:06:20;99112.09;;;6.50;100.00
46876;BME280;32866;50.160;14.768;2023-03-22T05:08:45;99088.75;;;6.29;100.00
46876;BME280;32866;50.160;14.768;2023-03-22T05:11:16;99124.31;;;6.19;100.00
46876;BME280;32866;50.160;14.768;2023-03-22T05:13:42;99119.91;;;6.01;100.00
46876;BME280;32866;50.160;14.768;2023-03-22T05:16:08;99119.72;;;5.88;100.00
46876;BME280;32866;50.160;14.768;2023-03-22T05:18:34;99130.19;;;5.90;100.00
46876;BME280;32866;50.160;14.768;2023-03-22T05:21:02;99118.63;;;5.82;100.00
46876;BME280;32866;50.160;14.768;2023-03-22T05:23:32;99121.47;;;5.75;100.00
46876;BME280;32866;50.160;14.768;2023-03-22T05:25:58;99135.97;;;6.19;100.00
46876;BME280;32866;50.160;14.768;2023-03-22T05:28:25;99101.88;;;6.11;100.00
46876;BME280;32866;50.160;14.768;2023-03-22T05:30:52;99140.09;;;6.27;100.00
46876;BME280;32866;50.160;14.768;2023-03-22T05:33:18;99108.00;;;6.19;100.00
46876;BME280;32866;50.160;14.768;2023-03-22T05:35:46;99143.66;;;6.68;100.00
46876;BME280;32866;50.160;14.768;2023-03-22T05:38:12;99138.81;;;6.79;100.00
46876;BME280;32866;50.160;14.768;2023-03-22T05:40:38;99136.09;;;6.99;100.00
46876;BME280;32866;50.160;14.768;2023-03-22T05:43:03;99135.94;;;7.06;100.00
46876;BME280;32866;50.160;14.768;2023-03-22T05:45:28;99125.78;;;7.07;100.00
46876;BME280;32866;50.160;14.768;2023-03-22T05:47:55;99092.16;;;6.97;100.00
46876;BME280;32866;50.160;14.768;2023-03-22T05:50:21;99131.13;;;7.14;100.00
46876;BME280;32866;50.160;14.768;2023-03-22T05:52:48;99137.56;;;7.04;100.00
46876;BME280;32866;50.160;14.768;2023-03-22T05:55:14;99137.00;;;6.93;100.00
46876;BME280;32866;50.160;14.768;2023-03-22T05:57:42;99137.69;;;6.97;100.00
46876;BME280;32866;50.160;14.768;2023-03-22T06:00:10;99137.56;;;6.84;100.00
46876;BME280;32866;50.160;14.768;2023-03-22T06:02:47;99131.19;;;6.91;100.00
46876;BME280;32866;50.160;14.768;2023-03-22T06:05:15;99128.75;;;6.96;100.00
46876;BME280;32866;50.160;14.768;2023-03-22T06:07:41;99128.97;;;7.05;100.00
46876;BME280;32866;50.160;14.768;2023-03-22T06:10:07;99133.13;;;7.30;100.00
46876;BME280;32866;50.160;14.768;2023-03-22T06:12:33;99135.13;;;7.46;100.00
46876;BME280;32866;50.160;14.768;2023-03-22T06:14:59;99132.75;;;8.01;100.00
46876;BME280;32866;50.160;14.768;2023-03-22T06:17:25;99118.53;;;8.39;100.00
46876;BME280;32866;50.160;14.768;2023-03-22T06:19:51;99123.31;;;9.10;100.00
46876;BME280;32866;50.160;14.768;2023-03-22T06:22:16;99148.97;;;9.93;100.00
46876;BME280;32866;50.160;14.768;2023-03-22T06:24:42;99146.19;;;10.32;100.00
46876;BME280;32866;50.160;14.768;2023-03-22T06:27:08;99143.22;;;10.74;100.00
46876;BME280;32866;50.160;14.768;2023-03-22T06:29:34;99144.72;;;10.88;100.00
46876;BME280;32866;50.160;14.768;2023-03-22T06:31:59;99150.56;;;10.77;100.00
46876;BME280;32866;50.160;14.768;2023-03-22T06:34:25;99154.53;;;10.98;100.00
46876;BME280;32866;50.160;14.768;2023-03-22T06:36:51;99146.41;;;11.39;100.00
46876;BME280;32866;50.160;14.768;2023-03-22T06:39:17;99157.03;;;11.59;100.00
46876;BME280;32866;50.160;14.768;2023-03-22T06:41:43;99148.75;;;12.31;100.00
46876;BME280;32866;50.160;14.768;2023-03-22T06:44:08;99150.59;;;12.71;100.00
46876;BME280;32866;50.160;14.768;2023-03-22T06:46:33;99158.38;;;13.00;100.00
46876;BME280;32866;50.160;14.768;2023-03-22T06:48:59;99156.25;;;12.86;100.00
46876;BME280;32866;50.160;14.768;2023-03-22T06:51:25;99144.47;;;12.48;100.00
46876;BME280;32866;50.160;14.768;2023-03-22T06:53:50;99127.41;;;12.62;100.00
46876;BME280;32866;50.160;14.768;2023-03-22T06:56:16;99155.75;;;12.22;100.00
46876;BME280;32866;50.160;14.768;2023-03-22T06:58:41;99153.31;;;12.34;100.00
46876;BME280;32866;50.160;14.768;2023-03-22T07:01:07;99157.94;;;12.83;100.00
46876;BME280;32866;50.160;14.768;2023-03-22T07:03:32;99158.97;;;13.41;100.00
46876;BME280;32866;50.160;14.768;2023-03-22T07:08:26;99155.09;;;14.48;100.00
46876;BME280;32866;50.160;14.768;2023-03-22T07:10:52;99159.00;;;14.80;100.00
46876;BME280;32866;50.160;14.768;2023-03-22T07:13:17;99147.88;;;14.26;100.00
46876;BME280;32866;50.160;14.768;2023-03-22T07:15:43;99159.16;;;14.62;100.00
46876;BME280;32866;50.160;14.768;2023-03-22T07:18:08;99157.00;;;14.57;100.00
46876;BME280;32866;50.160;14.768;2023-03-22T07:20:33;99145.16;;;13.93;100.00
46876;BME280;32866;50.160;14.768;2023-03-22T07:23:02;99154.88;;;13.79;100.00
46876;BME280;32866;50.160;14.768;2023-03-22T07:25:28;99155.53;;;13.65;100.00
46876;BME280;32866;50.160;14.768;2023-03-22T07:27:53;99154.53;;;13.07;100.00
46876;BME280;32866;50.160;14.768;2023-03-22T07:30:18;99161.59;;;13.08;100.00
46876;BME280;32866;50.160;14.768;2023-03-22T07:32:44;99123.13;;;12.52;100.00
46876;BME280;32866;50.160;14.768;2023-03-22T07:35:09;99129.22;;;12.56;100.00
46876;BME280;32866;50.160;14.768;2023-03-22T07:37:35;99157.03;;;12.86;100.00
46876;BME280;32866;50.160;14.768;2023-03-22T07:40:00;99141.09;;;13.27;100.00
46876;BME280;32866;50.160;14.768;2023-03-22T07:42:26;99135.25;;;13.86;100.00
46876;BME280;32866;50.160;14.768;2023-03-22T07:44:51;99132.78;;;14.13;100.00
46876;BME280;32866;50.160;14.768;2023-03-22T07:47:17;99164.41;;;14.51;100.00
46876;BME280;32866;50.160;14.768;2023-03-22T07:49:42;99135.91;;;14.93;100.00
46876;BME280;32866;50.160;14.768;2023-03-22T07:52:08;99120.13;;;14.06;100.00
46876;BME280;32866;50.160;14.768;2023-03-22T07:54:33;99138.47;;;15.11;100.00
46876;BME280;32866;50.160;14.768;2023-03-22T07:56:59;99149.06;;;15.43;100.00
46876;BME280;32866;50.160;14.768;2023-03-22T07:59:25;99155.72;;;15.81;100.00
46876;BME280;32866;50.160;14.768;2023-03-22T08:01:50;99131.59;;;15.81;100.00
46876;BME280;32866;50.160;14.768;2023-03-22T08:04:15;99156.06;;;15.88;100.00
46876;BME280;32866;50.160;14.768;2023-03-22T08:06:41;99155.22;;;15.82;100.00
46876;BME280;32866;50.160;14.768;2023-03-22T08:09:07;99147.41;;;16.16;100.00
46876;BME280;32866;50.160;14.768;2023-03-22T08:11:32;99151.13;;;15.77;100.00
46876;BME280;32866;50.160;14.768;2023-03-22T08:13:58;99125.72;;;15.58;100.00
46876;BME280;32866;50.160;14.768;2023-03-22T08:16:23;99126.34;;;16.60;99.83
46876;BME280;32866;50.160;14.768;2023-03-22T08:18:49;99137.03;;;17.19;97.43
46876;BME280;32866;50.160;14.768;2023-03-22T08:21:14;99099.91;;;17.05;94.21
46876;BME280;32866;50.160;14.768;2023-03-22T08:23:39;99105.81;;;17.51;93.27
46876;BME280;32866;50.160;14.768;2023-03-22T08:26:05;99137.59;;;17.61;82.67
46876;BME280;32866;50.160;14.768;2023-03-22T08:28:30;99134.13;;;17.34;81.77
46876;BME280;32866;50.160;14.768;2023-03-22T08:30:56;99102.78;;;16.91;82.77
46876;BME280;32866;50.160;14.768;2023-03-22T08:33:21;99133.88;;;16.18;85.99
46876;BME280;32866;50.160;14.768;2023-03-22T08:35:48;99126.56;;;16.82;84.71
46876;BME280;32866;50.160;14.768;2023-03-22T08:38:13;99126.88;;;17.11;82.24
46876;BME280;32866;50.160;14.768;2023-03-22T08:40:38;99130.81;;;17.30;81.49
46876;BME280;32866;50.160;14.768;2023-03-22T08:43:04;99112.06;;;18.21;79.36
46876;BME280;32866;50.160;14.768;2023-03-22T08:45:29;99123.81;;;18.64;76.94
46876;BME280;32866;50.160;14.768;2023-03-22T08:47:55;99131.03;;;18.39;75.64
46876;BME280;32866;50.160;14.768;2023-03-22T08:50:21;99126.88;;;17.42;82.47
46876;BME280;32866;50.160;14.768;2023-03-22T08:52:47;99124.78;;;18.01;79.10
46876;BME280;32866;50.160;14.768;2023-03-22T08:55:12;99119.00;;;17.61;78.00
46876;BME280;32866;50.160;14.768;2023-03-22T08:57:38;99121.06;;;18.10;78.43
46876;BME280;32866;50.160;14.768;2023-03-22T09:00:04;99130.38;;;18.67;75.77
46876;BME280;32866;50.160;14.768;2023-03-22T09:02:31;99118.25;;;18.04;74.96
46876;BME280;32866;50.160;14.768;2023-03-22T09:04:57;99118.56;;;18.12;75.73
46876;BME280;32866;50.160;14.768;2023-03-22T09:07:22;99117.03;;;18.11;75.30
46876;BME280;32866;50.160;14.768;2023-03-22T09:09:48;99111.81;;;19.01;73.33
46876;BME280;32866;50.160;14.768;2023-03-22T09:12:13;99084.00;;;18.79;72.14
46876;BME280;32866;50.160;14.768;2023-03-22T09:14:39;99078.66;;;18.64;71.76
46876;BME280;32866;50.160;14.768;2023-03-22T09:17:05;99107.00;;;19.02;69.62
46876;BME280;32866;50.160;14.768;2023-03-22T09:19:30;99069.06;;;18.53;70.07
46876;BME280;32866;50.160;14.768;2023-03-22T09:21:56;99102.41;;;18.76;71.38
46876;BME280;32866;50.160;14.768;2023-03-22T09:24:21;99066.56;;;18.67;69.46
46876;BME280;32866;50.160;14.768;2023-03-22T09:26:47;99091.88;;;19.20;66.41
46876;BME280;32866;50.160;14.768;2023-03-22T09:29:12;99079.22;;;19.47;64.92
46876;BME280;32866;50.160;14.768;2023-03-22T09:31:37;99096.31;;;20.72;62.53
46876;BME280;32866;50.160;14.768;2023-03-22T09:34:03;99091.25;;;20.70;59.73
46876;BME280;32866;50.160;14.768;2023-03-22T09:36:28;99086.31;;;20.46;54.36
46876;BME280;32866;50.160;14.768;2023-03-22T09:38:54;99065.38;;;19.36;56.59
46876;BME280;32866;50.160;14.768;2023-03-22T09:41:45;99086.25;;;18.75;57.52
46876;BME280;32866;50.160;14.768;2023-03-22T09:44:15;99083.03;;;18.93;57.83
46876;BME280;32866;50.160;14.768;2023-03-22T09:46:45;99073.63;;;20.98;53.05
46876;BME280;32866;50.160;14.768;2023-03-22T09:49:16;99084.56;;;21.21;50.56
46876;BME280;32866;50.160;14.768;2023-03-22T09:51:44;99073.84;;;21.61;48.93
46876;BME280;32866;50.160;14.768;2023-03-22T09:54:33;99030.75;;;20.77;50.07
46876;BME280;32866;50.160;14.768;2023-03-22T09:57:04;99070.41;;;21.19;48.93
46876;BME280;32866;50.160;14.768;2023-03-22T09:59:45;99061.63;;;20.20;49.40
46876;BME280;32866;50.160;14.768;2023-03-22T10:02:45;99062.53;;;19.70;51.59
46876;BME280;32866;50.160;14.768;2023-03-22T10:08:32;99055.47;;;20.38;50.17
46876;BME280;32866;50.160;14.768;2023-03-22T10:11:00;99053.88;;;21.26;48.19
46876;BME280;32866;50.160;14.768;2023-03-22T10:16:01;99042.41;;;20.69;48.92
46876;BME280;32866;50.160;14.768;2023-03-22T10:18:32;99036.00;;;21.71;47.57
46876;BME280;32866;50.160;14.768;2023-03-22T10:21:07;99040.56;;;21.44;46.47
46876;BME280;32866;50.160;14.768;2023-03-22T10:26:28;99034.94;;;22.37;43.68
46876;BME280;32866;50.160;14.768;2023-03-22T10:28:58;99017.94;;;22.73;43.61
46876;BME280;32866;50.160;14.768;2023-03-22T10:31:27;99010.88;;;22.53;41.71
46876;BME280;32866;50.160;14.768;2023-03-22T10:34:13;99040.97;;;22.92;41.44
46876;BME280;32866;50.160;14.768;2023-03-22T10:36:41;99034.88;;;22.62;41.12
46876;BME280;32866;50.160;14.768;2023-03-22T10:42:05;99020.78;;;23.19;41.24
46876;BME280;32866;50.160;14.768;2023-03-22T10:44:37;99016.63;;;23.79;39.16
46876;BME280;32866;50.160;14.768;2023-03-22T10:47:09;98995.13;;;23.33;40.54
46876;BME280;32866;50.160;14.768;2023-03-22T10:49:42;99029.38;;;22.88;40.92
46876;BME280;32866;50.160;14.768;2023-03-22T10:52:35;99017.88;;;24.18;38.38
46876;BME280;32866;50.160;14.768;2023-03-22T10:55:07;99016.16;;;24.84;37.05
46876;BME280;32866;50.160;14.768;2023-03-22T10:57:33;99010.53;;;25.47;36.44
46876;BME280;32866;50.160;14.768;2023-03-22T10:59:58;98997.91;;;24.00;38.27
46876;BME280;32866;50.160;14.768;2023-03-22T11:02:29;99013.63;;;24.38;37.96
46876;BME280;32866;50.160;14.768;2023-03-22T11:05:01;99005.44;;;24.74;35.92
46876;BME280;32866;50.160;14.768;2023-03-22T11:07:34;99001.94;;;26.25;35.66
46876;BME280;32866;50.160;14.768;2023-03-22T11:12:39;98990.47;;;24.72;36.69
46876;BME280;32866;50.160;14.768;2023-03-22T11:18:14;98976.97;;;25.33;37.14
46876;BME280;32866;50.160;14.768;2023-03-22T11:20:42;98999.22;;;25.97;35.62
46876;BME280;32866;50.160;14.768;2023-03-22T11:25:55;98965.78;;;25.70;36.13
46876;BME280;32866;50.160;14.768;2023-03-22T11:28:27;98990.69;;;24.95;36.47
46876;BME280;32866;50.160;14.768;2023-03-22T11:31:19;98958.81;;;25.27;36.21
46876;BME280;32866;50.160;14.768;2023-03-22T11:34:15;98946.31;;;25.28;36.18
46876;BME280;32866;50.160;14.768;2023-03-22T11:36:45;98965.03;;;25.33;35.91
46876;BME280;32866;50.160;14.768;2023-03-22T11:39:16;98941.31;;;23.94;38.17
46876;BME280;32866;50.160;14.768;2023-03-22T11:41:44;98950.69;;;21.81;42.06
46876;BME280;32866;50.160;14.768;2023-03-22T11:44:14;98923.41;;;22.64;41.73
46876;BME280;32866;50.160;14.768;2023-03-22T11:46:54;98916.91;;;23.81;39.12
46876;BME280;32866;50.160;14.768;2023-03-22T11:49:23;98919.78;;;23.41;40.40
46876;BME280;32866;50.160;14.768;2023-03-22T11:52:07;98934.53;;;24.79;37.40
46876;BME280;32866;50.160;14.768;2023-03-22T11:54:41;98927.59;;;26.03;35.99
46876;BME280;32866;50.160;14.768;2023-03-22T11:57:12;98914.16;;;27.25;34.21
46876;BME280;32866;50.160;14.768;2023-03-22T11:59:56;98914.09;;;27.48;33.42
46876;BME280;32866;50.160;14.768;2023-03-22T12:02:28;98928.22;;;24.87;37.02
46876;BME280;32866;50.160;14.768;2023-03-22T12:05:09;98912.78;;;23.08;40.49
46876;BME280;32866;50.160;14.768;2023-03-22T12:07:40;98913.91;;;22.99;42.15
46876;BME280;32866;50.160;14.768;2023-03-22T12:10:21;98885.06;;;23.23;40.71
46876;BME280;32866;50.160;14.768;2023-03-22T12:12:57;98913.34;;;22.74;43.05
46876;BME280;32866;50.160;14.768;2023-03-22T12:15:47;98901.16;;;22.26;43.67
46876;BME280;32866;50.160;14.768;2023-03-22T12:18:41;98903.06;;;22.95;41.94
46876;BME280;32866;50.160;14.768;2023-03-22T12:21:09;98883.47;;;23.89;40.79
46876;BME280;32866;50.160;14.768;2023-03-22T12:23:38;98859.59;;;25.30;38.05
46876;BME280;32866;50.160;14.768;2023-03-22T12:26:13;98876.31;;;24.86;38.33
46876;BME280;32866;50.160;14.768;2023-03-22T12:28:54;98892.50;;;24.79;38.52
46876;BME280;32866;50.160;14.768;2023-03-22T12:31:33;98865.03;;;25.07;40.06
46876;BME280;32866;50.160;14.768;2023-03-22T12:34:14;98875.22;;;25.54;38.59
46876;BME280;32866;50.160;14.768;2023-03-22T12:36:48;98871.56;;;27.92;33.78
46876;BME280;32866;50.160;14.768;2023-03-22T12:40:00;98857.41;;;27.67;33.55
46876;BME280;32866;50.160;14.768;2023-03-22T12:45:17;98856.53;;;26.16;34.35
46876;BME280;32866;50.160;14.768;2023-03-22T12:47:53;98846.59;;;26.15;35.64
46876;BME280;32866;50.160;14.768;2023-03-22T12:52:53;98825.69;;;25.20;36.32
46876;BME280;32866;50.160;14.768;2023-03-22T12:55:27;98833.13;;;25.46;34.38
46876;BME280;32866;50.160;14.768;2023-03-22T12:57:54;98826.63;;;23.60;37.13
46876;BME280;32866;50.160;14.768;2023-03-22T13:00:31;98831.50;;;23.32;38.02
46876;BME280;32866;50.160;14.768;2023-03-22T13:03:06;98813.00;;;24.12;37.59
46876;BME280;32866;50.160;14.768;2023-03-22T13:05:34;98783.00;;;24.20;36.65
46876;BME280;32866;50.160;14.768;2023-03-22T13:08:04;98805.84;;;23.21;36.97
46876;BME280;32866;50.160;14.768;2023-03-22T13:15:35;98808.53;;;22.86;40.51
46876;BME280;32866;50.160;14.768;2023-03-22T13:18:02;98809.41;;;22.68;39.05
46876;BME280;32866;50.160;14.768;2023-03-22T13:20:29;98808.03;;;22.29;39.30
46876;BME280;32866;50.160;14.768;2023-03-22T13:25:33;98802.91;;;23.74;37.18
46876;BME280;32866;50.160;14.768;2023-03-22T13:30:52;98804.19;;;24.29;36.79
46876;BME280;32866;50.160;14.768;2023-03-22T13:33:30;98783.34;;;24.37;35.69
46876;BME280;32866;50.160;14.768;2023-03-22T13:35:58;98780.88;;;23.70;37.17
46876;BME280;32866;50.160;14.768;2023-03-22T13:38:38;98784.09;;;23.40;38.11
46876;BME280;32866;50.160;14.768;2023-03-22T13:41:21;98776.53;;;23.83;37.70
46876;BME280;32866;50.160;14.768;2023-03-22T13:43:50;98784.59;;;24.07;37.40
46876;BME280;32866;50.160;14.768;2023-03-22T13:51:15;98762.09;;;23.23;36.19
46876;BME280;32866;50.160;14.768;2023-03-22T13:56:31;98773.41;;;24.07;35.90
46876;BME280;32866;50.160;14.768;2023-03-22T13:59:01;98761.69;;;24.38;33.91
46876;BME280;32866;50.160;14.768;2023-03-22T14:01:31;98771.34;;;24.08;35.02
46876;BME280;32866;50.160;14.768;2023-03-22T14:04:02;98745.38;;;22.70;35.93
46876;BME280;32866;50.160;14.768;2023-03-22T14:06:31;98758.81;;;23.46;34.96
46876;BME280;32866;50.160;14.768;2023-03-22T14:09:10;98770.09;;;23.75;35.00
46876;BME280;32866;50.160;14.768;2023-03-22T14:11:52;98772.28;;;23.68;35.44
46876;BME280;32866;50.160;14.768;2023-03-22T14:14:23;98762.78;;;23.85;35.70
46876;BME280;32866;50.160;14.768;2023-03-22T14:17:04;98728.28;;;22.87;36.03
46876;BME280;32866;50.160;14.768;2023-03-22T14:19:36;98756.28;;;23.34;34.96